Flight Number: EUR3027 Duration: 7:00
Departure: John F Kennedy Int'l (KJFK) at 00:00 Distance: 3014 Nm
Arrival: Tel Aviv Ben Gurion (LLBG) at 07:00 Equipment: B777

Weather Information
KENNEDY INTERNATIONAL AIRPORT , NY, United States (KJFK) 40-38N 073-46W 9M Sep 21, 2017 - 04:51 PM EDT / 2017.09.21 2051 UTC
Wind: from the N (350 degrees) at 15 MPH (13 KT):0
Visibility: 10 mile(s):0
Sky conditions: mostly cloudy Temperature: 79.0 F (26.1 C) Dew Point: 64.0 F (17.8 C) Relative Humidity: 60% Pressure (altimeter): 29.99 in. Hg (1015 hPa) Pressure tendency: 0.00 inches (0.1 hPa) higher than three hours ago
ob: KJFK 212051Z 35013KT 10SM FEW040 SCT220 BKN260 26/18 A2999 RMK AO2 SLP155 T02610178 53001 cycle: 21
Sunrise: 10:45 Sunset: 22:50 (UTC)

Ben-Gurion International Airport, Israel (LLBG) 32-00N 034-54E 49M Sep 21, 2017 - 04:50 PM EDT / 2017.09.21 2050 UTC
Wind: from the SSE (160 degrees) at 6 MPH (5 KT):0
Visibility: greater than 7 mile(s):0
Sky conditions: mostly clear Temperature: 78 F (26 C) Dew Point: 71 F (22 C) Relative Humidity: 78% Pressure (altimeter): 29.91 in. Hg (1013 hPa)
ob: LLBG 212050Z 16005KT 9999 FEW020 26/22 Q1013 NOSIG cycle: 21
Sunrise: 03:31 Sunset: 15:35 (UTC)

TAF:2017/09/21 18:06 TAF TAF LLBG 211702Z 2118/2218 28006KT 9999 FEW025 BECMG 2120/2122 17004KT SCT020 TEMPO 2200/2206 BKN020 BECMG 2207/2209 28010KT FEW030 TX29/2212Z TN24/2203Z

This route has never been flown.

Route map